Time;durP1;ratioP1;P1;durP2;ratioP2;P2;SDS_P1;SDS_P2;PMS_P1;PMS_P2;Temp;Humidity;BMP_temperature;BMP_pressure;BME280_temperature;BME280_humidity;BME280_pressure;Samples;Min_cycle;Max_cycle;Signal;HPM_P1;HPM_P2
2023/08/15 00:00:08;;;;;;;0.00;0.00;;;21.80;99.90;;;;;;7390282;19;20184;-69
2023/08/15 00:02:41;;;;;;;0.00;0.00;;;21.70;99.90;;;;;;7394289;19;20132;-69
2023/08/15 00:05:10;;;;;;;0.00;0.00;;;;;;;;;;7392612;19;20175;-68
2023/08/15 00:07:57;;;;;;;0.00;0.00;;;21.70;99.90;;;;;;7396552;19;20170;-69
2023/08/15 00:10:26;;;;;;;0.00;0.00;;;21.70;99.90;;;;;;7392584;19;20168;-69
2023/08/15 00:12:57;;;;;;;0.00;0.00;;;21.60;99.90;;;;;;7393595;19;20157;-70
2023/08/15 00:15:26;;;;;;;0.00;0.00;;;21.50;99.90;;;;;;7393022;19;20153;-69
2023/08/15 00:17:55;;;;;;;0.00;0.00;;;;;;;;;;7393340;19;20172;-68
2023/08/15 00:20:24;;;;;;;0.00;0.00;;;21.50;99.90;;;;;;7390797;19;20207;-69
2023/08/15 00:22:52;;;;;;;0.00;0.00;;;21.40;99.90;;;;;;7391326;19;20157;-69
2023/08/15 00:25:21;;;;;;;0.00;0.00;;;21.40;99.90;;;;;;7394425;19;20159;-69
2023/08/15 00:27:50;;;;;;;0.00;0.00;;;21.40;99.90;;;;;;7393089;19;20163;-69
2023/08/15 00:30:21;;;;;;;0.00;0.00;;;21.40;99.90;;;;;;7393397;19;20156;-70
2023/08/15 00:32:50;;;;;;;0.00;0.00;;;21.30;99.90;;;;;;7393442;19;20141;-69
2023/08/15 00:35:19;;;;;;;0.00;0.00;;;21.30;99.90;;;;;;7387782;19;20167;-69
2023/08/15 00:37:47;;;;;;;0.00;0.00;;;21.20;99.90;;;;;;7392791;19;20153;-69
2023/08/15 00:40:16;;;;;;;0.00;0.00;;;21.20;99.90;;;;;;7390676;19;20180;-69
2023/08/15 00:42:45;;;;;;;0.00;0.00;;;21.20;99.90;;;;;;7390604;19;20152;-69
2023/08/15 00:45:14;;;;;;;0.00;0.00;;;21.20;99.90;;;;;;7393586;19;20164;-69
2023/08/15 00:47:46;;;;;;;0.00;0.00;;;21.10;99.90;;;;;;7391873;19;20153;-69
2023/08/15 00:50:15;;;;;;;0.00;0.00;;;21.10;99.90;;;;;;7391150;19;20219;-69
2023/08/15 00:52:43;;;;;;;0.00;0.00;;;21.00;99.90;;;;;;7393791;19;20129;-69
2023/08/15 00:55:12;;;;;;;0.00;0.00;;;21.00;99.90;;;;;;7392766;19;20144;-69
2023/08/15 00:57:41;;;;;;;0.00;0.00;;;21.00;99.90;;;;;;7392285;19;20157;-69
2023/08/15 01:00:11;;;;;;;0.00;0.00;;;20.90;99.90;;;;;;7390916;19;20195;-69
2023/08/15 01:02:40;;;;;;;0.00;0.00;;;20.90;99.90;;;;;;7388243;19;20137;-69
2023/08/15 01:05:11;;;;;;;0.00;0.00;;;20.90;99.90;;;;;;7387932;19;20157;-69
2023/08/15 01:07:40;;;;;;;0.00;0.00;;;20.80;99.90;;;;;;7390478;19;20187;-69
2023/08/15 01:10:10;;;;;;;0.00;0.00;;;20.80;99.90;;;;;;7387259;19;20199;-68
2023/08/15 01:12:46;;;;;;;0.00;0.00;;;20.80;99.90;;;;;;7392635;19;20145;-69
2023/08/15 01:15:19;;;;;;;0.00;0.00;;;20.80;99.90;;;;;;7391632;19;20183;-69
2023/08/15 01:17:53;;;;;;;0.00;0.00;;;20.70;99.90;;;;;;7390798;19;20148;-69
2023/08/15 01:20:29;;;;;;;0.00;0.00;;;20.70;99.90;;;;;;7389652;19;20195;-69
2023/08/15 01:23:02;;;;;;;0.00;0.00;;;20.60;99.90;;;;;;7390155;19;20154;-69
2023/08/15 01:25:42;;;;;;;0.00;0.00;;;20.60;99.90;;;;;;7390366;19;20152;-69
2023/08/15 01:28:14;;;;;;;0.00;0.00;;;20.60;99.90;;;;;;7391678;19;20175;-70
2023/08/15 01:30:49;;;;;;;0.00;0.00;;;20.60;99.90;;;;;;7387881;19;20188;-70
2023/08/15 01:33:23;;;;;;;0.00;0.00;;;20.60;99.90;;;;;;7391955;19;20165;-69
2023/08/15 01:35:59;;;;;;;0.00;0.00;;;20.60;99.90;;;;;;7390543;19;20188;-69
2023/08/15 01:38:35;;;;;;;0.00;0.00;;;20.60;99.90;;;;;;7389121;19;20149;-68
2023/08/15 01:41:08;;;;;;;0.00;0.00;;;20.60;99.90;;;;;;7388925;19;20152;-69
2023/08/15 01:43:39;;;;;;;0.00;0.00;;;20.60;99.90;;;;;;7389109;19;20183;-68
2023/08/15 01:46:09;;;;;;;0.00;0.00;;;20.60;99.90;;;;;;7391102;19;20157;-69
2023/08/15 01:48:41;;;;;;;0.00;0.00;;;20.60;99.90;;;;;;7391129;19;20133;-69
2023/08/15 01:51:10;;;;;;;0.00;0.00;;;20.60;99.90;;;;;;7387155;19;20244;-69
2023/08/15 01:53:40;;;;;;;0.00;0.00;;;20.50;99.90;;;;;;7388458;19;20156;-69
2023/08/15 01:56:12;;;;;;;0.00;0.00;;;20.50;99.90;;;;;;7390667;19;20153;-69
2023/08/15 01:58:41;;;;;;;0.00;0.00;;;20.50;99.90;;;;;;7389646;19;20160;-69
2023/08/15 02:01:09;;;;;;;0.00;0.00;;;20.60;99.90;;;;;;7387335;19;20203;-70
2023/08/15 02:03:38;;;;;;;0.00;0.00;;;20.50;99.90;;;;;;7388940;19;20137;-69
2023/08/15 02:06:07;;;;;;;0.00;0.00;;;20.70;99.90;;;;;;7391735;19;20145;-68
2023/08/15 02:08:36;;;;;;;0.00;0.00;;;20.40;99.90;;;;;;7390419;19;20173;-69
2023/08/15 02:11:05;;;;;;;0.00;0.00;;;19.80;99.90;;;;;;7387950;19;20145;-70
2023/08/15 02:13:39;;;;;;;0.00;0.00;;;;;;;;;;7388606;19;20631;-69
2023/08/15 02:16:07;;;;;;;0.00;0.00;;;20.30;99.90;;;;;;7392219;19;20156;-70
2023/08/15 02:18:36;;;;;;;0.00;0.00;;;20.40;99.90;;;;;;7388763;19;20156;-69
2023/08/15 02:21:05;;;;;;;0.00;0.00;;;20.30;99.90;;;;;;7386034;19;20180;-69
2023/08/15 02:23:33;;;;;;;0.00;0.00;;;20.40;99.90;;;;;;7385947;19;20175;-69
2023/08/15 02:26:02;;;;;;;0.00;0.00;;;20.40;99.90;;;;;;7388004;19;20149;-68
2023/08/15 02:28:31;;;;;;;0.00;0.00;;;20.30;99.90;;;;;;7389895;19;20148;-69
2023/08/15 02:31:05;;;;;;;0.00;0.00;;;20.30;99.90;;;;;;7387038;19;20144;-69
2023/08/15 02:33:33;;;;;;;0.00;0.00;;;20.20;99.90;;;;;;7388351;19;20140;-69
2023/08/15 02:36:07;;;;;;;0.00;0.00;;;20.20;99.90;;;;;;7389069;19;20163;-69
2023/08/15 02:38:36;;;;;;;0.00;0.00;;;20.20;99.90;;;;;;7389713;19;20148;-69
2023/08/15 02:41:08;;;;;;;0.00;0.00;;;20.20;99.90;;;;;;7387723;19;20149;-70
2023/08/15 02:43:36;;;;;;;0.00;0.00;;;20.20;99.90;;;;;;7384835;19;20156;-69
2023/08/15 02:46:08;;;;;;;0.00;0.00;;;;;;;;;;7390245;19;20137;-69
2023/08/15 02:48:36;;;;;;;0.00;0.00;;;;;;;;;;7389431;19;20140;-69
2023/08/15 02:51:08;;;;;;;0.00;0.00;;;;;;;;;;7386136;19;20180;-69
2023/08/15 02:53:37;;;;;;;0.00;0.00;;;;;;;;;;7387531;19;20172;-70
2023/08/15 02:56:06;;;;;;;0.00;0.00;;;;;;;;;;7389526;19;20145;-69
2023/08/15 02:58:34;;;;;;;0.00;0.00;;;;;;;;;;7387531;19;20164;-69
2023/08/15 03:01:04;;;;;;;0.00;0.00;;;;;;;;;;7385881;19;20239;-70
2023/08/15 03:03:35;;;;;;;0.00;0.00;;;;;;;;;;7387777;19;20153;-69
2023/08/15 03:06:05;;;;;;;0.00;0.00;;;20.30;99.90;;;;;;7388612;19;20161;-70
2023/08/15 03:08:34;;;;;;;0.00;0.00;;;20.30;99.90;;;;;;7386089;19;20160;-70
2023/08/15 03:11:03;;;;;;;0.00;0.00;;;20.30;99.90;;;;;;7387852;19;20180;-69
2023/08/15 03:13:31;;;;;;;0.00;0.00;;;20.20;99.90;;;;;;7388202;19;20156;-70
2023/08/15 03:16:01;;;;;;;0.00;0.00;;;20.20;99.90;;;;;;7387993;19;20171;-70
2023/08/15 03:18:35;;;;;;;0.00;0.00;;;20.20;99.90;;;;;;7387566;19;20152;-69
2023/08/15 03:21:08;;;;;;;0.00;0.00;;;20.20;99.90;;;;;;7385092;19;20180;-69
2023/08/15 03:23:37;;;;;;;0.00;0.00;;;20.20;99.90;;;;;;7384597;19;20232;-69
2023/08/15 03:26:07;;;;;;;0.00;0.00;;;20.20;99.90;;;;;;7386966;19;20156;-69
2023/08/15 03:28:39;;;;;;;0.00;0.00;;;20.10;99.90;;;;;;7386712;19;20172;-69
2023/08/15 03:31:07;;;;;;;0.00;0.00;;;20.10;99.90;;;;;;7384192;19;20251;-68
2023/08/15 03:33:42;;;;;;;0.00;0.00;;;20.10;99.90;;;;;;7389857;19;20164;-69
2023/08/15 03:36:11;;;;;;;0.00;0.00;;;20.10;99.90;;;;;;7394864;19;20153;-69
2023/08/15 03:38:41;;;;;;;0.00;0.00;;;20.10;99.90;;;;;;7394588;19;20164;-69
2023/08/15 03:41:10;;;;;;;0.00;0.00;;;20.10;99.90;;;;;;7392606;19;20213;-70
2023/08/15 03:43:39;;;;;;;0.00;0.00;;;20.10;99.90;;;;;;7393397;19;20167;-69
2023/08/15 03:46:08;;;;;;;0.00;0.00;;;20.00;99.90;;;;;;7395083;19;20163;-70
2023/08/15 03:48:38;;;;;;;0.00;0.00;;;20.00;99.90;;;;;;7393889;19;20627;-71
2023/08/15 03:51:09;;;;;;;0.00;0.00;;;20.00;99.90;;;;;;7392974;19;20203;-69
2023/08/15 03:53:38;;;;;;;0.00;0.00;;;19.90;99.90;;;;;;7396531;19;20167;-70
2023/08/15 03:56:07;;;;;;;0.00;0.00;;;19.90;99.90;;;;;;7394584;19;20187;-70
2023/08/15 03:58:35;;;;;;;0.00;0.00;;;19.90;99.90;;;;;;7396380;19;20167;-70
2023/08/15 04:01:04;;;;;;;0.00;0.00;;;19.80;99.90;;;;;;7391203;19;20180;-69
2023/08/15 04:03:33;;;;;;;0.00;0.00;;;19.80;99.90;;;;;;7392000;19;20152;-69
2023/08/15 04:06:02;;;;;;;0.00;0.00;;;19.80;99.90;;;;;;7393335;19;20169;-70
2023/08/15 04:08:33;;;;;;;0.00;0.00;;;19.80;99.90;;;;;;7397017;19;20137;-71
2023/08/15 04:11:03;;;;;;;0.00;0.00;;;19.80;99.90;;;;;;7390791;19;20176;-70
2023/08/15 04:13:31;;;;;;;0.00;0.00;;;19.80;99.90;;;;;;7394212;19;20168;-69
2023/08/15 04:16:00;;;;;;;0.00;0.00;;;19.80;99.90;;;;;;7392595;19;20611;-70
2023/08/15 04:18:29;;;;;;;0.00;0.00;;;19.90;99.90;;;;;;7393964;19;20156;-70
2023/08/15 04:20:58;;;;;;;0.00;0.00;;;19.90;99.90;;;;;;7389118;19;20181;-69
2023/08/15 04:23:27;;;;;;;0.00;0.00;;;19.90;99.90;;;;;;7392591;19;20608;-70
2023/08/15 04:25:59;;;;;;;0.00;0.00;;;19.90;99.90;;;;;;7393702;19;20137;-70
2023/08/15 04:28:28;;;;;;;0.00;0.00;;;19.90;99.90;;;;;;7394500;19;20157;-69
2023/08/15 04:30:57;;;;;;;0.00;0.00;;;20.00;99.90;;;;;;7389809;19;20188;-69
2023/08/15 04:33:26;;;;;;;0.00;0.00;;;20.00;99.90;;;;;;7390819;19;20156;-69
2023/08/15 04:35:55;;;;;;;0.00;0.00;;;20.00;99.90;;;;;;7391345;19;20156;-69
2023/08/15 04:38:23;;;;;;;0.00;0.00;;;20.10;99.90;;;;;;7392889;19;20156;-70
2023/08/15 04:40:52;;;;;;;0.00;0.00;;;20.10;99.90;;;;;;7389889;19;20173;-69
2023/08/15 04:43:24;;;;;;;0.00;0.00;;;20.10;99.90;;;;;;7393203;19;20172;-69
2023/08/15 04:45:52;;;;;;;0.00;0.00;;;20.20;99.90;;;;;;7391337;19;20153;-68
2023/08/15 04:48:21;;;;;;;0.00;0.00;;;20.30;99.90;;;;;;7392110;19;20185;-69
2023/08/15 04:50:50;;;;;;;0.00;0.00;;;20.40;99.90;;;;;;7389825;19;20153;-69
2023/08/15 04:53:18;;;;;;;0.00;0.00;;;20.40;99.90;;;;;;7391475;19;20160;-70
2023/08/15 04:55:47;;;;;;;0.00;0.00;;;20.50;99.90;;;;;;7389630;19;20729;-69
2023/08/15 04:58:16;;;;;;;0.00;0.00;;;20.60;99.90;;;;;;7394132;19;20149;-69
2023/08/15 05:00:47;;;;;;;0.00;0.00;;;20.60;99.90;;;;;;7390599;19;20185;-70
2023/08/15 05:03:16;;;;;;;0.00;0.00;;;20.70;99.90;;;;;;7392308;19;20156;-69
2023/08/15 05:05:45;;;;;;;0.00;0.00;;;20.80;99.90;;;;;;7392712;19;20184;-70
2023/08/15 05:08:14;;;;;;;0.00;0.00;;;20.80;99.90;;;;;;7392414;19;20156;-69
2023/08/15 05:10:42;;;;;;;0.00;0.00;;;20.80;99.90;;;;;;7387436;19;20206;-69
2023/08/15 05:13:11;;;;;;;0.00;0.00;;;20.90;99.90;;;;;;7390878;19;20220;-70
2023/08/15 05:15:40;;;;;;;0.00;0.00;;;21.00;99.90;;;;;;7391797;19;20166;-70
2023/08/15 05:18:13;;;;;;;0.00;0.00;;;21.10;99.90;;;;;;7391495;19;20223;-69
2023/08/15 05:20:42;;;;;;;0.00;0.00;;;21.10;99.90;;;;;;7389979;19;20211;-68
2023/08/15 05:23:10;;;;;;;0.00;0.00;;;21.20;99.90;;;;;;7391931;19;20159;-69
2023/08/15 05:25:41;;;;;;;0.00;0.00;;;21.30;99.90;;;;;;7391707;19;20156;-70
2023/08/15 05:28:10;;;;;;;0.00;0.00;;;21.40;99.90;;;;;;7390716;19;20152;-70
2023/08/15 05:30:39;;;;;;;0.00;0.00;;;21.60;99.90;;;;;;7389428;19;20188;-70
2023/08/15 05:33:11;;;;;;;0.00;0.00;;;21.70;99.90;;;;;;7390296;19;20165;-70
2023/08/15 05:35:40;;;;;;;0.00;0.00;;;21.80;99.90;;;;;;7391889;19;20161;-69
2023/08/15 05:38:08;;;;;;;0.00;0.00;;;21.90;99.90;;;;;;7389382;19;20186;-70
2023/08/15 05:40:38;;;;;;;0.00;0.00;;;21.90;99.90;;;;;;7390247;19;20175;-71
2023/08/15 05:43:08;;;;;;;0.00;0.00;;;21.80;99.90;;;;;;7390199;19;20157;-69
2023/08/15 05:45:39;;;;;;;0.00;0.00;;;21.80;99.90;;;;;;7387223;19;20525;-70
2023/08/15 05:48:11;;;;;;;0.00;0.00;;;21.90;99.90;;;;;;7389976;19;20156;-69
2023/08/15 05:50:40;;;;;;;0.00;0.00;;;22.00;99.90;;;;;;7389166;19;20176;-70
2023/08/15 05:53:09;;;;;;;0.00;0.00;;;22.10;99.90;;;;;;7390247;19;20145;-70
2023/08/15 05:55:38;;;;;;;0.00;0.00;;;22.20;99.90;;;;;;7391124;19;20163;-71
2023/08/15 05:58:07;;;;;;;0.00;0.00;;;22.20;99.90;;;;;;7389393;19;20153;-70
2023/08/15 06:00:37;;;;;;;0.00;0.00;;;22.30;99.90;;;;;;7388728;19;20206;-70
2023/08/15 06:03:07;;;;;;;0.00;0.00;;;22.40;99.90;;;;;;7389880;19;20159;-70
2023/08/15 06:05:39;;;;;;;0.00;0.00;;;22.60;99.90;;;;;;7389157;19;20165;-70
2023/08/15 06:08:08;;;;;;;0.00;0.00;;;22.70;99.90;;;;;;7390596;19;20153;-69
2023/08/15 06:10:37;;;;;;;0.00;0.00;;;22.80;99.90;;;;;;7388686;19;20184;-69
2023/08/15 06:13:06;;;;;;;0.00;0.00;;;23.00;99.90;;;;;;7390114;19;20156;-70
2023/08/15 06:15:35;;;;;;;0.00;0.00;;;23.10;99.90;;;;;;7389731;19;20522;-70
2023/08/15 06:18:04;;;;;;;0.00;0.00;;;23.30;99.90;;;;;;7389634;19;20600;-69
2023/08/15 06:20:32;;;;;;;0.00;0.00;;;23.40;99.90;;;;;;7389211;19;20176;-70
2023/08/15 06:23:04;;;;;;;0.00;0.00;;;23.50;99.90;;;;;;7390736;19;20164;-69
2023/08/15 06:25:32;;;;;;;0.00;0.00;;;23.70;99.90;;;;;;7386994;19;20137;-70
2023/08/15 06:28:01;;;;;;;0.00;0.00;;;23.80;99.90;;;;;;7389210;19;20152;-70
2023/08/15 06:30:29;;;;;;;0.00;0.00;;;23.90;99.90;;;;;;7388929;19;20153;-70
2023/08/15 06:32:58;;;;;;;0.00;0.00;;;24.00;99.90;;;;;;7388860;19;20156;-69
2023/08/15 06:35:28;;;;;;;0.00;0.00;;;24.00;99.90;;;;;;7390345;19;20153;-70
2023/08/15 06:37:57;;;;;;;0.00;0.00;;;24.20;99.90;;;;;;7389576;19;20151;-67
2023/08/15 06:40:28;;;;;;;0.00;0.00;;;24.30;99.90;;;;;;7389264;19;20176;-68
2023/08/15 06:42:57;;;;;;;0.00;0.00;;;25.40;99.90;;;;;;7388158;19;20140;-67
2023/08/15 06:45:25;;;;;;;0.00;0.00;;;24.50;99.90;;;;;;7389553;19;20141;-68
2023/08/15 06:47:54;;;;;;;0.00;0.00;;;24.70;99.90;;;;;;7387205;19;20149;-67
2023/08/15 06:50:23;;;;;;;0.00;0.00;;;;;;;;;;7387442;19;20192;-68
2023/08/15 06:52:52;;;;;;;0.00;0.00;;;25.00;99.90;;;;;;7389373;19;20152;-67
2023/08/15 06:55:21;;;;;;;0.00;0.00;;;25.10;99.90;;;;;;7387913;19;20153;-67
2023/08/15 06:57:52;;;;;;;0.00;0.00;;;25.30;99.90;;;;;;7387906;19;20141;-67
2023/08/15 07:00:21;;;;;;;0.00;0.00;;;25.40;99.90;;;;;;7387610;19;20163;-67
2023/08/15 07:02:50;;;;;;;0.00;0.00;;;25.40;99.90;;;;;;7388984;19;20141;-67
2023/08/15 07:05:19;;;;;;;0.00;0.00;;;25.50;99.90;;;;;;7385905;19;20159;-67
2023/08/15 07:07:47;;;;;;;0.00;0.00;;;25.70;99.90;;;;;;7388625;19;20161;-67
2023/08/15 07:10:16;;;;;;;0.00;0.00;;;25.90;99.90;;;;;;7385066;19;20172;-67
2023/08/15 07:12:45;;;;;;;0.00;0.00;;;25.90;99.90;;;;;;7390401;19;20145;-68
2023/08/15 07:15:16;;;;;;;0.00;0.00;;;26.10;99.90;;;;;;7387584;19;20137;-68
2023/08/15 07:17:45;;;;;;;0.00;0.00;;;26.20;99.90;;;;;;7388313;19;20125;-68
2023/08/15 07:20:14;;;;;;;0.00;0.00;;;26.20;99.90;;;;;;7385570;19;20180;-67
2023/08/15 07:22:43;;;;;;;0.00;0.00;;;26.20;99.90;;;;;;7389298;19;20153;-68
2023/08/15 07:25:13;;;;;;;0.00;0.00;;;;;;;;;;7387401;19;20498;-67
2023/08/15 07:27:41;;;;;;;0.00;0.00;;;26.50;99.90;;;;;;7389238;19;20137;-69
2023/08/15 07:30:13;;;;;;;0.00;0.00;;;26.60;99.90;;;;;;7386387;19;20240;-68
2023/08/15 07:32:45;;;;;;;0.00;0.00;;;26.60;99.90;;;;;;7388545;19;20151;-68
2023/08/15 07:35:13;;;;;;;0.00;0.00;;;26.60;99.90;;;;;;7386023;19;20154;-68
2023/08/15 07:37:42;;;;;;;0.00;0.00;;;26.90;99.90;;;;;;7387724;19;20152;-68
2023/08/15 07:40:12;;;;;;;0.00;0.00;;;26.90;99.90;;;;;;7385924;19;20281;-67
2023/08/15 07:42:43;;;;;;;0.00;0.00;;;27.00;99.90;;;;;;7386383;19;20157;-68
2023/08/15 07:45:12;;;;;;;0.00;0.00;;;27.20;99.90;;;;;;7386436;19;20156;-68
2023/08/15 07:47:44;;;;;;;0.00;0.00;;;27.10;99.90;;;;;;7388262;19;20152;-68
2023/08/15 07:50:18;;;;;;;0.00;0.00;;;27.10;99.90;;;;;;7385376;19;20184;-68
2023/08/15 07:52:47;;;;;;;0.00;0.00;;;27.00;99.90;;;;;;7387840;19;20153;-68
2023/08/15 07:55:16;;;;;;;0.00;0.00;;;27.00;99.90;;;;;;7385534;19;20595;-68
2023/08/15 07:57:45;;;;;;;0.00;0.00;;;26.80;99.90;;;;;;7387129;19;20163;-67
2023/08/15 08:00:15;;;;;;;0.00;0.00;;;26.70;99.90;;;;;;7385734;19;20161;-67
2023/08/15 08:02:48;;;;;;;0.00;0.00;;;26.50;99.90;;;;;;7386992;19;20167;-68
2023/08/15 08:05:17;;;;;;;0.00;0.00;;;26.20;99.90;;;;;;7384372;19;20149;-67
2023/08/15 08:07:47;;;;;;;0.00;0.00;;;26.00;99.90;;;;;;7384606;19;20192;-68
2023/08/15 08:10:15;;;;;;;0.00;0.00;;;25.50;99.90;;;;;;7381862;19;20188;-75
2023/08/15 08:12:45;;;;;;;0.00;0.00;;;24.90;99.90;;;;;;7386342;19;20153;-73
2023/08/15 08:15:14;;;;;;;0.00;0.00;;;;;;;;;;7386049;19;20137;-75
2023/08/15 08:17:43;;;;;;;0.00;0.00;;;24.20;99.90;;;;;;7386305;19;20161;-74
2023/08/15 08:20:16;;;;;;;0.00;0.00;;;24.10;99.90;;;;;;7384844;19;20184;-73
2023/08/15 08:22:45;;;;;;;0.00;0.00;;;23.90;99.90;;;;;;7393880;19;20158;-73
2023/08/15 08:25:18;;;;;;;0.00;0.00;;;23.80;99.90;;;;;;7391278;19;20160;-74
2023/08/15 08:27:46;;;;;;;0.00;0.00;;;23.70;99.90;;;;;;7396169;19;20137;-75
2023/08/15 08:30:16;;;;;;;0.00;0.00;;;23.60;99.90;;;;;;7390642;19;20199;-74
2023/08/15 08:32:45;;;;;;;0.00;0.00;;;23.60;99.90;;;;;;7393700;19;20160;-73
2023/08/15 08:35:17;;;;;;;0.00;0.00;;;23.50;99.90;;;;;;7392226;19;20156;-74
2023/08/15 08:37:47;;;;;;;0.00;0.00;;;23.40;99.90;;;;;;7393183;19;20155;-74
2023/08/15 08:40:17;;;;;;;0.00;0.00;;;23.40;99.90;;;;;;7389105;19;20184;-74
2023/08/15 08:42:46;;;;;;;0.00;0.00;;;23.40;99.90;;;;;;7395196;19;20147;-74
2023/08/15 08:45:15;;;;;;;0.00;0.00;;;;;;;;;;7392269;19;20762;-73
2023/08/15 08:47:45;;;;;;;0.00;0.00;;;;;;;;;;7394496;19;20152;-74
2023/08/15 08:50:18;;;;;;;0.00;0.00;;;;;;;;;;7389946;19;20188;-73
2023/08/15 08:52:49;;;;;;;0.00;0.00;;;23.40;99.90;;;;;;7394823;19;20168;-73
2023/08/15 08:55:18;;;;;;;0.00;0.00;;;23.60;99.90;;;;;;7393071;19;20141;-73
2023/08/15 08:57:50;;;;;;;0.00;0.00;;;23.70;99.90;;;;;;7393910;19;20204;-73
2023/08/15 09:00:22;;;;;;;0.00;0.00;;;24.30;99.90;;;;;;7391350;19;20172;-73
2023/08/15 09:02:52;;;;;;;0.00;0.00;;;24.70;99.90;;;;;;7394426;19;20133;-73
2023/08/15 09:05:24;;;;;;;0.00;0.00;;;25.10;99.90;;;;;;7389783;19;20149;-73
2023/08/15 09:07:53;;;;;;;0.00;0.00;;;25.20;99.90;;;;;;7392529;19;20179;-73
2023/08/15 09:10:24;;;;;;;0.00;0.00;;;25.30;99.90;;;;;;7390999;19;20163;-73
2023/08/15 09:12:53;;;;;;;0.00;0.00;;;25.80;99.90;;;;;;7392898;19;20140;-72
2023/08/15 09:15:23;;;;;;;0.00;0.00;;;25.80;99.90;;;;;;7390596;19;20183;-75
2023/08/15 09:17:52;;;;;;;0.00;0.00;;;25.80;99.90;;;;;;7392187;19;20152;-73
2023/08/15 09:20:23;;;;;;;0.00;0.00;;;26.20;99.90;;;;;;7390146;19;20152;-73
2023/08/15 09:22:54;;;;;;;0.00;0.00;;;26.30;99.90;;;;;;7388607;19;20204;-74
2023/08/15 09:25:22;;;;;;;0.00;0.00;;;26.70;99.90;;;;;;7388584;19;20151;-72
2023/08/15 09:27:51;;;;;;;0.00;0.00;;;;;;;;;;7391263;19;20156;-72
2023/08/15 09:30:20;;;;;;;0.00;0.00;;;;;;;;;;7389752;19;20259;-71
2023/08/15 09:32:49;;;;;;;0.00;0.00;;;;;;;;;;7392932;19;20140;-72
2023/08/15 09:35:19;;;;;;;0.00;0.00;;;;;;;;;;7392539;19;20231;-72
2023/08/15 09:37:52;;;;;;;0.00;0.00;;;;;;;;;;7391345;19;20221;-72
2023/08/15 09:40:22;;;;;;;0.00;0.00;;;;;;;;;;7388163;19;20184;-72
2023/08/15 09:42:51;;;;;;;0.00;0.00;;;;;;;;;;7390410;19;20228;-71
2023/08/15 09:45:20;;;;;;;0.00;0.00;;;;;;;;;;7388053;19;20156;-71
2023/08/15 09:47:49;;;;;;;0.00;0.00;;;;;;;;;;7390780;19;20686;-71
2023/08/15 09:50:18;;;;;;;0.00;0.00;;;;;;;;;;7388582;19;20225;-71
2023/08/15 09:52:48;;;;;;;0.00;0.00;;;;;;;;;;7392875;19;20149;-72
2023/08/15 09:55:20;;;;;;;0.00;0.00;;;;;;;;;;7388563;19;20165;-71
2023/08/15 09:57:50;;;;;;;0.00;0.00;;;;;;;;;;7391469;19;20141;-71
2023/08/15 10:00:20;;;;;;;0.00;0.00;;;27.80;99.90;;;;;;7387643;19;20164;-71
2023/08/15 10:02:50;;;;;;;0.00;0.00;;;27.60;99.90;;;;;;7390776;19;20201;-71
2023/08/15 10:05:24;;;;;;;0.00;0.00;;;27.60;99.90;;;;;;7389881;19;20165;-71
2023/08/15 10:07:53;;;;;;;0.00;0.00;;;;;;;;;;7391248;19;20202;-71
2023/08/15 10:10:25;;;;;;;0.00;0.00;;;;;;;;;;7387634;19;20169;-71
2023/08/15 10:12:54;;;;;;;0.00;0.00;;;27.50;99.90;;;;;;7389749;19;20152;-71
2023/08/15 10:15:24;;;;;;;0.00;0.00;;;27.60;99.90;;;;;;7387084;19;20153;-71
2023/08/15 10:17:53;;;;;;;0.00;0.00;;;27.80;99.90;;;;;;7388515;19;20152;-71
2023/08/15 10:20:23;;;;;;;0.00;0.00;;;27.50;99.90;;;;;;7386345;19;20189;-71
2023/08/15 10:22:56;;;;;;;0.00;0.00;;;27.60;99.90;;;;;;7389067;19;20152;-71
2023/08/15 10:25:40;;;;;;;0.00;0.00;;;27.80;99.90;;;;;;7387078;19;20157;-71
2023/08/15 10:28:13;;;;;;;0.00;0.00;;;27.80;99.90;;;;;;7391148;19;20144;-71
2023/08/15 10:30:46;;;;;;;0.00;0.00;;;27.80;99.90;;;;;;7389379;19;20221;-71
2023/08/15 10:33:16;;;;;;;0.00;0.00;;;27.70;99.90;;;;;;7390739;19;20133;-70
2023/08/15 10:35:54;;;;;;;0.00;0.00;;;27.80;99.90;;;;;;7389160;19;20718;-71
2023/08/15 10:38:25;;;;;;;0.00;0.00;;;27.80;99.90;;;;;;7389469;19;20149;-71
2023/08/15 10:41:03;;;;;;;0.00;0.00;;;27.80;99.90;;;;;;7387965;19;20209;-71
2023/08/15 10:43:31;;;;;;;0.00;0.00;;;27.90;99.90;;;;;;7387070;19;20152;-71
2023/08/15 10:46:04;;;;;;;0.00;0.00;;;28.00;99.90;;;;;;7390291;19;20145;-71
2023/08/15 10:48:43;;;;;;;0.00;0.00;;;28.00;99.90;;;;;;7388098;19;20148;-70
2023/08/15 10:51:21;;;;;;;0.00;0.00;;;27.90;99.90;;;;;;7384378;19;20204;-70
2023/08/15 10:53:51;;;;;;;0.00;0.00;;;27.90;99.90;;;;;;7388683;19;20595;-69
2023/08/15 10:56:24;;;;;;;0.00;0.00;;;28.00;99.90;;;;;;7386649;19;20183;-69
2023/08/15 10:58:53;;;;;;;0.00;0.00;;;28.10;99.90;;;;;;7388376;19;20148;-69
2023/08/15 11:01:24;;;;;;;0.00;0.00;;;28.20;99.90;;;;;;7387061;19;20504;-69
2023/08/15 11:03:54;;;;;;;0.00;0.00;;;28.30;99.90;;;;;;7388039;19;20157;-69
2023/08/15 11:06:24;;;;;;;0.00;0.00;;;28.20;99.90;;;;;;7386521;19;20149;-68
2023/08/15 11:08:53;;;;;;;0.00;0.00;;;;;;;;;;7389882;19;20145;-69
2023/08/15 11:11:25;;;;;;;0.00;0.00;;;28.00;99.90;;;;;;7386769;19;20253;-69
2023/08/15 11:13:57;;;;;;;0.00;0.00;;;28.10;99.90;;;;;;7387838;19;20152;-69
2023/08/15 11:16:29;;;;;;;0.00;0.00;;;28.20;99.90;;;;;;7382051;19;20151;-69
2023/08/15 11:18:59;;;;;;;0.00;0.00;;;28.30;99.90;;;;;;7389244;19;20140;-68
2023/08/15 11:21:31;;;;;;;0.00;0.00;;;28.50;99.90;;;;;;7383256;19;20176;-69
2023/08/15 11:24:03;;;;;;;0.00;0.00;;;28.50;99.90;;;;;;7388003;19;20137;-68
2023/08/15 11:26:34;;;;;;;0.00;0.00;;;28.40;99.90;;;;;;7384648;19;20161;-68
2023/08/15 11:29:03;;;;;;;0.00;0.00;;;28.30;99.90;;;;;;7389436;19;20133;-68
2023/08/15 11:31:32;;;;;;;0.00;0.00;;;28.30;99.90;;;;;;7384821;19;20157;-68
2023/08/15 11:34:01;;;;;;;0.00;0.00;;;28.40;99.90;;;;;;7389563;19;20149;-68
2023/08/15 11:36:30;;;;;;;0.00;0.00;;;28.60;99.90;;;;;;7381105;19;20174;-68
2023/08/15 11:39:03;;;;;;;0.00;0.00;;;28.50;99.90;;;;;;7383705;19;20161;-69
2023/08/15 11:41:36;;;;;;;0.00;0.00;;;28.60;99.90;;;;;;7383914;19;20172;-68
2023/08/15 11:44:05;;;;;;;0.00;0.00;;;28.70;99.90;;;;;;7389145;19;20152;-69
2023/08/15 11:46:37;;;;;;;0.00;0.00;;;28.80;99.90;;;;;;7387745;19;20140;-69
2023/08/15 11:49:06;;;;;;;0.00;0.00;;;28.90;99.90;;;;;;7389250;19;20171;-69
2023/08/15 11:51:34;;;;;;;0.00;0.00;;;28.90;99.90;;;;;;7383995;19;20200;-69
2023/08/15 11:54:04;;;;;;;0.00;0.00;;;29.00;99.90;;;;;;7389360;19;20159;-68
2023/08/15 11:56:54;;;;;;;0.00;0.00;;;29.20;99.90;;;;;;7393239;19;20171;-68
2023/08/15 11:59:23;;;;;;;0.00;0.00;;;29.20;99.90;;;;;;7395346;19;20133;-68
2023/08/15 12:01:52;;;;;;;0.00;0.00;;;29.20;99.90;;;;;;7391597;19;20173;-69
2023/08/15 12:04:21;;;;;;;0.00;0.00;;;29.30;99.90;;;;;;7393034;19;20184;-69
2023/08/15 12:06:51;;;;;;;0.00;0.00;;;29.30;99.90;;;;;;7393077;19;20160;-68
2023/08/15 12:09:20;;;;;;;0.00;0.00;;;29.30;99.90;;;;;;7392987;19;20152;-68
2023/08/15 12:11:49;;;;;;;0.00;0.00;;;29.30;99.90;;;;;;7389532;19;20159;-68
2023/08/15 12:14:24;;;;;;;0.00;0.00;;;29.30;99.90;;;;;;7394289;19;20141;-68
2023/08/15 12:16:52;;;;;;;0.00;0.00;;;29.30;99.90;;;;;;7393559;19;20148;-68
2023/08/15 12:19:21;;;;;;;0.00;0.00;;;;;;;;;;7394862;19;20137;-68
2023/08/15 12:21:51;;;;;;;0.00;0.00;;;29.50;99.90;;;;;;7389881;19;20203;-68
2023/08/15 12:24:20;;;;;;;0.00;0.00;;;;;;;;;;7394861;19;20212;-68
2023/08/15 12:26:49;;;;;;;0.00;0.00;;;;;;;;;;7390201;19;20178;-68
2023/08/15 12:29:18;;;;;;;0.00;0.00;;;29.10;99.90;;;;;;7391372;19;20156;-68
2023/08/15 12:31:49;;;;;;;0.00;0.00;;;29.20;99.90;;;;;;7389307;19;20176;-67
2023/08/15 12:34:18;;;;;;;0.00;0.00;;;29.20;99.90;;;;;;7394895;19;20139;-68
2023/08/15 12:36:46;;;;;;;0.00;0.00;;;29.20;99.90;;;;;;7394729;19;20141;-68
2023/08/15 12:39:16;;;;;;;0.00;0.00;;;29.10;99.90;;;;;;7394677;19;20133;-68
2023/08/15 12:41:45;;;;;;;0.00;0.00;;;29.10;99.90;;;;;;7391070;19;20153;-68
2023/08/15 12:44:15;;;;;;;0.00;0.00;;;29.10;99.90;;;;;;7394437;19;20141;-68
2023/08/15 12:46:43;;;;;;;0.00;0.00;;;28.90;99.90;;;;;;7391404;19;20163;-68
2023/08/15 12:49:15;;;;;;;0.00;0.00;;;;;;;;;;7391843;19;20153;-69
2023/08/15 12:51:44;;;;;;;0.00;0.00;;;;;;;;;;7389050;19;20184;-67
2023/08/15 12:54:13;;;;;;;0.00;0.00;;;;;;;;;;7391040;19;20157;-67
2023/08/15 12:56:42;;;;;;;0.00;0.00;;;;;;;;;;7391725;19;20145;-68
2023/08/15 12:59:11;;;;;;;0.00;0.00;;;28.60;99.90;;;;;;7390813;19;20168;-68
2023/08/15 13:01:40;;;;;;;0.00;0.00;;;28.70;99.90;;;;;;7388092;19;20190;-69
2023/08/15 13:04:12;;;;;;;0.00;0.00;;;28.70;99.90;;;;;;7391419;19;20152;-68
2023/08/15 13:06:43;;;;;;;0.00;0.00;;;28.70;99.90;;;;;;7389525;19;20136;-68
2023/08/15 13:09:12;;;;;;;0.00;0.00;;;28.60;99.90;;;;;;7391433;19;20157;-68
2023/08/15 13:11:41;;;;;;;0.00;0.00;;;28.60;99.90;;;;;;7387758;19;20148;-68
2023/08/15 13:14:10;;;;;;;0.00;0.00;;;28.70;99.90;;;;;;7391652;19;20141;-67